Seaspan Saigon — VRBT7 — position and weather

sailwx.info

Track history (hours):
 
Tides and Currents Weather Stations Pressure Air Temp Water Temp Dewpoint Dewpoint Depression Visibility Wind Speed Wind Dir Waves Ship Positions

Seaspan Saigon

Last reported at 2016-Sep-20 13:33 UTC. Time now 2016-Sep-26 02:01 UTC.
Position N 25°42' W 079°40'.

Length 260 m; draft 11.9 m.

Type: Ship (hazmat cat A). MMSI: 477106800.

Date/timePositionNaut miles runAvg speedWind from/ knotsBaromVisibWave heightAir tempDewpointWater temp
2016-Sep-20 13:33N 25°42' W 079°40'3310.9
2016-Sep-20 10:34N 26°04' W 080°07'0 0.0
2016-Sep-20 08:33N 26°04' W 080°07'0 0.0
2016-Sep-20 07:33N 26°04' W 080°07'0 0.0
2016-Sep-20 06:33N 26°04' W 080°07'0 0.0
2016-Sep-20 02:30N 26°04' W 080°07'0 0.0
2016-Sep-19 23:30N 26°04' W 080°07'13 3.2
2016-Sep-19 19:33N 26°05' W 079°53'3 2.8
2016-Sep-19 18:33N 26°03' W 079°54'6 3.1
2016-Sep-19 16:33N 26°06' W 079°48'10 5.0
2016-Sep-19 14:33N 26°06' W 079°37'6 5.6
2016-Sep-19 13:33N 26°08' W 079°31'4 4.2
2016-Sep-19 12:33N 26°09' W 079°27'6 6.1
2016-Sep-19 11:30N 26°12' W 079°20'  
2016-Sep-13 06:00N 34°18' W 033°18'42818.9 050 / 101022.010.8 0.522.020.5
2016-Sep-12 07:22N 35°56' W 024°49'1518.1
2016-Sep-12 06:33N 35°59' W 024°32'35619.2
2016-Sep-11 12:00N 35°54' W 017°12'   360 / 81020.010.8 1.522.018.925.0
Track history (hours):
 
Tides and Currents Weather Stations Pressure Air Temp Water Temp Dewpoint Dewpoint Depression Visibility Wind Speed Wind Dir Waves Ship Positions

Seaspan Saigon

Last reported at 2016-Sep-20 13:33 UTC. Time now 2016-Sep-26 02:01 UTC.
Position N 25°42' W 079°40'.

Length 260 m; draft 11.9 m.

Type: Ship (hazmat cat A). MMSI: 477106800.

Date/timePositionNaut miles runAvg speedWind from/ knotsBaromVisibWave heightAir tempDewpointWater temp
2016-Sep-20 13:33N 25°42' W 079°40'3310.9
2016-Sep-20 10:34N 26°04' W 080°07'0 0.0
2016-Sep-20 08:33N 26°04' W 080°07'0 0.0
2016-Sep-20 07:33N 26°04' W 080°07'0 0.0
2016-Sep-20 06:33N 26°04' W 080°07'0 0.0
2016-Sep-20 02:30N 26°04' W 080°07'0 0.0
2016-Sep-19 23:30N 26°04' W 080°07'13 3.2
2016-Sep-19 19:33N 26°05' W 079°53'3 2.8
2016-Sep-19 18:33N 26°03' W 079°54'6 3.1
2016-Sep-19 16:33N 26°06' W 079°48'10 5.0
2016-Sep-19 14:33N 26°06' W 079°37'6 5.6
2016-Sep-19 13:33N 26°08' W 079°31'4 4.2
2016-Sep-19 12:33N 26°09' W 079°27'6 6.1
2016-Sep-19 11:30N 26°12' W 079°20'  
2016-Sep-13 06:00N 34°18' W 033°18'42818.9 050 / 101022.010.8 0.522.020.5
2016-Sep-12 07:22N 35°56' W 024°49'1518.1
2016-Sep-12 06:33N 35°59' W 024°32'35619.2
2016-Sep-11 12:00N 35°54' W 017°12'   360 / 81020.010.8 1.522.018.925.0

Dump ship's entire track history